sensor_id;sensor_type;location;lat;lon;timestamp;P1;durP1;ratioP1;P2;durP2;ratioP2
47603;SDS011;33326;51.116;6.900;2022-11-15T00:02:24;15.27;;;8.70;;
47603;SDS011;33326;51.116;6.900;2022-11-15T00:07:45;12.30;;;8.18;;
47603;SDS011;33326;51.116;6.900;2022-11-15T00:13:06;14.02;;;9.07;;
47603;SDS011;33326;51.116;6.900;2022-11-15T00:18:29;12.60;;;8.25;;
47603;SDS011;33326;51.116;6.900;2022-11-15T00:23:50;13.10;;;8.27;;
47603;SDS011;33326;51.116;6.900;2022-11-15T00:29:10;17.42;;;8.90;;
47603;SDS011;33326;51.116;6.900;2022-11-15T00:34:32;17.00;;;8.30;;
47603;SDS011;33326;51.116;6.900;2022-11-15T00:39:52;14.40;;;8.57;;
47603;SDS011;33326;51.116;6.900;2022-11-15T00:45:13;16.23;;;8.70;;
47603;SDS011;33326;51.116;6.900;2022-11-15T00:50:35;14.25;;;8.57;;
47603;SDS011;33326;51.116;6.900;2022-11-15T00:55:55;14.77;;;9.02;;
47603;SDS011;33326;51.116;6.900;2022-11-15T01:01:16;12.45;;;8.38;;
47603;SDS011;33326;51.116;6.900;2022-11-15T01:06:38;12.00;;;8.13;;
47603;SDS011;33326;51.116;6.900;2022-11-15T01:11:58;14.85;;;8.80;;
47603;SDS011;33326;51.116;6.900;2022-11-15T01:17:18;11.50;;;8.38;;
47603;SDS011;33326;51.116;6.900;2022-11-15T01:22:40;13.95;;;9.10;;
47603;SDS011;33326;51.116;6.900;2022-11-15T01:28:01;13.35;;;9.15;;
47603;SDS011;33326;51.116;6.900;2022-11-15T01:33:21;13.30;;;9.02;;
47603;SDS011;33326;51.116;6.900;2022-11-15T01:38:43;13.35;;;9.13;;
47603;SDS011;33326;51.116;6.900;2022-11-15T01:50:00;13.10;;;8.70;;
47603;SDS011;33326;51.116;6.900;2022-11-15T01:55:25;13.13;;;9.18;;
47603;SDS011;33326;51.116;6.900;2022-11-15T02:00:47;18.52;;;9.75;;
47603;SDS011;33326;51.116;6.900;2022-11-15T02:06:09;14.07;;;8.57;;
47603;SDS011;33326;51.116;6.900;2022-11-15T02:11:31;13.70;;;8.40;;
47603;SDS011;33326;51.116;6.900;2022-11-15T02:16:53;13.73;;;8.38;;
47603;SDS011;33326;51.116;6.900;2022-11-15T02:22:22;13.32;;;8.65;;
47603;SDS011;33326;51.116;6.900;2022-11-15T02:28:04;15.02;;;9.38;;
47603;SDS011;33326;51.116;6.900;2022-11-15T02:33:50;11.77;;;8.57;;
47603;SDS011;33326;51.116;6.900;2022-11-15T02:39:18;12.40;;;8.50;;
47603;SDS011;33326;51.116;6.900;2022-11-15T02:44:45;12.55;;;8.68;;
47603;SDS011;33326;51.116;6.900;2022-11-15T02:50:09;14.32;;;8.85;;
47603;SDS011;33326;51.116;6.900;2022-11-15T02:55:32;12.30;;;8.90;;
47603;SDS011;33326;51.116;6.900;2022-11-15T03:00:54;13.68;;;8.63;;
47603;SDS011;33326;51.116;6.900;2022-11-15T03:06:23;12.88;;;8.25;;
47603;SDS011;33326;51.116;6.900;2022-11-15T03:11:49;13.40;;;8.45;;
47603;SDS011;33326;51.116;6.900;2022-11-15T03:17:15;12.60;;;8.85;;
47603;SDS011;33326;51.116;6.900;2022-11-15T03:22:41;12.18;;;8.05;;
47603;SDS011;33326;51.116;6.900;2022-11-15T03:28:04;16.67;;;8.30;;
47603;SDS011;33326;51.116;6.900;2022-11-15T03:33:26;13.57;;;8.15;;
47603;SDS011;33326;51.116;6.900;2022-11-15T03:38:49;11.35;;;8.10;;
47603;SDS011;33326;51.116;6.900;2022-11-15T03:44:14;11.32;;;8.07;;
47603;SDS011;33326;51.116;6.900;2022-11-15T03:49:41;12.18;;;8.45;;
47603;SDS011;33326;51.116;6.900;2022-11-15T03:55:07;12.07;;;7.55;;
47603;SDS011;33326;51.116;6.900;2022-11-15T04:00:30;11.15;;;6.97;;
47603;SDS011;33326;51.116;6.900;2022-11-15T04:05:51;9.75;;;7.18;;
47603;SDS011;33326;51.116;6.900;2022-11-15T04:11:13;10.60;;;7.72;;
47603;SDS011;33326;51.116;6.900;2022-11-15T04:16:33;13.27;;;7.88;;
47603;SDS011;33326;51.116;6.900;2022-11-15T04:21:54;11.77;;;7.68;;
47603;SDS011;33326;51.116;6.900;2022-11-15T04:27:35;10.65;;;7.45;;
47603;SDS011;33326;51.116;6.900;2022-11-15T04:32:55;12.82;;;7.55;;
47603;SDS011;33326;51.116;6.900;2022-11-15T04:38:16;16.27;;;8.15;;
47603;SDS011;33326;51.116;6.900;2022-11-15T04:43:38;11.45;;;7.35;;
47603;SDS011;33326;51.116;6.900;2022-11-15T04:48:58;11.70;;;7.82;;
47603;SDS011;33326;51.116;6.900;2022-11-15T04:54:19;10.85;;;7.20;;
47603;SDS011;33326;51.116;6.900;2022-11-15T04:59:40;11.82;;;7.90;;
47603;SDS011;33326;51.116;6.900;2022-11-15T05:05:01;11.68;;;7.90;;
47603;SDS011;33326;51.116;6.900;2022-11-15T05:10:21;13.38;;;8.13;;
47603;SDS011;33326;51.116;6.900;2022-11-15T05:15:43;11.15;;;8.35;;
47603;SDS011;33326;51.116;6.900;2022-11-15T05:21:03;10.88;;;8.45;;
47603;SDS011;33326;51.116;6.900;2022-11-15T05:26:25;9.80;;;7.80;;
47603;SDS011;33326;51.116;6.900;2022-11-15T05:31:47;11.82;;;8.90;;
47603;SDS011;33326;51.116;6.900;2022-11-15T05:37:07;12.93;;;8.32;;
47603;SDS011;33326;51.116;6.900;2022-11-15T05:42:28;9.65;;;8.00;;
47603;SDS011;33326;51.116;6.900;2022-11-15T05:47:51;11.07;;;7.72;;
47603;SDS011;33326;51.116;6.900;2022-11-15T05:53:14;10.80;;;7.63;;
47603;SDS011;33326;51.116;6.900;2022-11-15T05:58:37;10.48;;;7.53;;
47603;SDS011;33326;51.116;6.900;2022-11-15T06:03:59;8.35;;;6.13;;
47603;SDS011;33326;51.116;6.900;2022-11-15T06:09:20;8.43;;;6.15;;
47603;SDS011;33326;51.116;6.900;2022-11-15T06:14:40;9.10;;;6.32;;
47603;SDS011;33326;51.116;6.900;2022-11-15T06:20:02;8.05;;;6.18;;
47603;SDS011;33326;51.116;6.900;2022-11-15T06:25:23;8.65;;;6.18;;
47603;SDS011;33326;51.116;6.900;2022-11-15T06:30:44;7.50;;;5.82;;
47603;SDS011;33326;51.116;6.900;2022-11-15T06:36:07;8.13;;;5.45;;
47603;SDS011;33326;51.116;6.900;2022-11-15T06:41:28;7.45;;;5.72;;
47603;SDS011;33326;51.116;6.900;2022-11-15T06:46:49;8.20;;;5.60;;
47603;SDS011;33326;51.116;6.900;2022-11-15T06:52:11;5.85;;;5.00;;
47603;SDS011;33326;51.116;6.900;2022-11-15T06:57:31;6.18;;;4.60;;
47603;SDS011;33326;51.116;6.900;2022-11-15T07:02:52;6.85;;;4.93;;
47603;SDS011;33326;51.116;6.900;2022-11-15T07:08:14;6.38;;;4.60;;
47603;SDS011;33326;51.116;6.900;2022-11-15T07:13:35;5.25;;;4.20;;
47603;SDS011;33326;51.116;6.900;2022-11-15T07:24:17;7.43;;;4.25;;
47603;SDS011;33326;51.116;6.900;2022-11-15T07:29:37;7.45;;;4.55;;
47603;SDS011;33326;51.116;6.900;2022-11-15T07:34:58;8.40;;;4.20;;
47603;SDS011;33326;51.116;6.900;2022-11-15T07:40:20;8.27;;;4.00;;
47603;SDS011;33326;51.116;6.900;2022-11-15T07:45:41;6.18;;;3.88;;
47603;SDS011;33326;51.116;6.900;2022-11-15T07:51:02;5.07;;;3.75;;
47603;SDS011;33326;51.116;6.900;2022-11-15T07:56:24;8.82;;;3.70;;
47603;SDS011;33326;51.116;6.900;2022-11-15T08:01:44;6.72;;;3.80;;
47603;SDS011;33326;51.116;6.900;2022-11-15T08:07:05;5.35;;;3.75;;
47603;SDS011;33326;51.116;6.900;2022-11-15T08:12:27;6.97;;;4.43;;
47603;SDS011;33326;51.116;6.900;2022-11-15T08:17:52;6.38;;;4.30;;
47603;SDS011;33326;51.116;6.900;2022-11-15T08:23:13;7.47;;;3.85;;
47603;SDS011;33326;51.116;6.900;2022-11-15T08:28:35;6.43;;;3.33;;
47603;SDS011;33326;51.116;6.900;2022-11-15T08:33:56;5.95;;;3.63;;
47603;SDS011;33326;51.116;6.900;2022-11-15T08:39:16;9.45;;;3.45;;
47603;SDS011;33326;51.116;6.900;2022-11-15T08:44:38;5.55;;;3.65;;
47603;SDS011;33326;51.116;6.900;2022-11-15T08:49:59;6.45;;;3.50;;
47603;SDS011;33326;51.116;6.900;2022-11-15T08:55:19;8.00;;;3.20;;
47603;SDS011;33326;51.116;6.900;2022-11-15T09:00:41;5.47;;;3.63;;
47603;SDS011;33326;51.116;6.900;2022-11-15T09:06:02;6.28;;;3.30;;
47603;SDS011;33326;51.116;6.900;2022-11-15T09:11:22;7.70;;;3.25;;
47603;SDS011;33326;51.116;6.900;2022-11-15T09:16:44;4.50;;;2.67;;
47603;SDS011;33326;51.116;6.900;2022-11-15T09:22:05;5.18;;;2.33;;
47603;SDS011;33326;51.116;6.900;2022-11-15T09:27:27;6.05;;;2.10;;
47603;SDS011;33326;51.116;6.900;2022-11-15T09:32:49;2.67;;;1.90;;
47603;SDS011;33326;51.116;6.900;2022-11-15T09:38:09;4.38;;;1.75;;
47603;SDS011;33326;51.116;6.900;2022-11-15T09:43:31;2.47;;;1.60;;
47603;SDS011;33326;51.116;6.900;2022-11-15T09:49:01;3.58;;;1.70;;
47603;SDS011;33326;51.116;6.900;2022-11-15T09:54:28;2.63;;;1.30;;
47603;SDS011;33326;51.116;6.900;2022-11-15T09:59:38;3.20;;;1.60;;
47603;SDS011;33326;51.116;6.900;2022-11-15T10:04:51;4.03;;;1.30;;
47603;SDS011;33326;51.116;6.900;2022-11-15T10:09:55;3.50;;;1.00;;
47603;SDS011;33326;51.116;6.900;2022-11-15T10:15:04;5.05;;;1.50;;
47603;SDS011;33326;51.116;6.900;2022-11-15T10:20:13;5.75;;;1.70;;
47603;SDS011;33326;51.116;6.900;2022-11-15T10:25:19;3.15;;;1.42;;
47603;SDS011;33326;51.116;6.900;2022-11-15T10:30:23;2.67;;;1.38;;
47603;SDS011;33326;51.116;6.900;2022-11-15T10:35:33;3.00;;;1.23;;
47603;SDS011;33326;51.116;6.900;2022-11-15T10:40:35;6.03;;;1.65;;
47603;SDS011;33326;51.116;6.900;2022-11-15T10:45:38;4.18;;;1.10;;
47603;SDS011;33326;51.116;6.900;2022-11-15T10:50:42;4.50;;;1.13;;
47603;SDS011;33326;51.116;6.900;2022-11-15T10:55:46;2.97;;;1.30;;
47603;SDS011;33326;51.116;6.900;2022-11-15T11:00:49;4.32;;;1.23;;
47603;SDS011;33326;51.116;6.900;2022-11-15T11:06:04;5.25;;;1.27;;
47603;SDS011;33326;51.116;6.900;2022-11-15T11:11:10;5.03;;;1.10;;
47603;SDS011;33326;51.116;6.900;2022-11-15T11:16:18;2.83;;;1.25;;
47603;SDS011;33326;51.116;6.900;2022-11-15T11:21:37;4.23;;;1.30;;
47603;SDS011;33326;51.116;6.900;2022-11-15T11:26:46;5.22;;;1.48;;
47603;SDS011;33326;51.116;6.900;2022-11-15T11:31:58;3.63;;;0.80;;
47603;SDS011;33326;51.116;6.900;2022-11-15T11:37:12;2.65;;;1.40;;
47603;SDS011;33326;51.116;6.900;2022-11-15T11:42:25;4.75;;;1.02;;
47603;SDS011;33326;51.116;6.900;2022-11-15T11:47:35;4.10;;;1.52;;
47603;SDS011;33326;51.116;6.900;2022-11-15T11:52:43;3.38;;;0.90;;
47603;SDS011;33326;51.116;6.900;2022-11-15T11:57:57;4.35;;;0.98;;
47603;SDS011;33326;51.116;6.900;2022-11-15T12:03:08;6.07;;;1.13;;
47603;SDS011;33326;51.116;6.900;2022-11-15T12:08:25;5.00;;;1.10;;
47603;SDS011;33326;51.116;6.900;2022-11-15T12:13:31;5.95;;;1.20;;
47603;SDS011;33326;51.116;6.900;2022-11-15T12:18:36;5.03;;;1.15;;
47603;SDS011;33326;51.116;6.900;2022-11-15T12:23:41;6.15;;;1.42;;
47603;SDS011;33326;51.116;6.900;2022-11-15T12:28:47;4.05;;;1.17;;
47603;SDS011;33326;51.116;6.900;2022-11-15T12:33:55;3.30;;;0.90;;
47603;SDS011;33326;51.116;6.900;2022-11-15T12:39:00;5.25;;;1.02;;
47603;SDS011;33326;51.116;6.900;2022-11-15T12:44:04;4.43;;;1.30;;
47603;SDS011;33326;51.116;6.900;2022-11-15T12:49:11;3.15;;;1.20;;
47603;SDS011;33326;51.116;6.900;2022-11-15T12:54:57;4.63;;;1.23;;
47603;SDS011;33326;51.116;6.900;2022-11-15T13:05:55;4.93;;;1.00;;
47603;SDS011;33326;51.116;6.900;2022-11-15T13:11:10;3.28;;;0.98;;
47603;SDS011;33326;51.116;6.900;2022-11-15T13:16:48;3.47;;;0.90;;
47603;SDS011;33326;51.116;6.900;2022-11-15T13:21:57;2.25;;;0.90;;
47603;SDS011;33326;51.116;6.900;2022-11-15T13:27:18;5.50;;;0.95;;
47603;SDS011;33326;51.116;6.900;2022-11-15T13:32:21;4.10;;;1.02;;
47603;SDS011;33326;51.116;6.900;2022-11-15T13:37:29;3.85;;;1.10;;
47603;SDS011;33326;51.116;6.900;2022-11-15T13:42:34;3.88;;;1.13;;
47603;SDS011;33326;51.116;6.900;2022-11-15T13:47:36;2.80;;;1.00;;
47603;SDS011;33326;51.116;6.900;2022-11-15T13:52:38;4.88;;;1.27;;
47603;SDS011;33326;51.116;6.900;2022-11-15T13:57:45;5.28;;;1.60;;
47603;SDS011;33326;51.116;6.900;2022-11-15T14:02:49;2.80;;;1.13;;
47603;SDS011;33326;51.116;6.900;2022-11-15T14:07:54;3.92;;;1.30;;
47603;SDS011;33326;51.116;6.900;2022-11-15T14:13:01;3.20;;;1.70;;
47603;SDS011;33326;51.116;6.900;2022-11-15T14:18:05;5.38;;;1.75;;
47603;SDS011;33326;51.116;6.900;2022-11-15T14:23:18;5.18;;;2.10;;
47603;SDS011;33326;51.116;6.900;2022-11-15T14:28:32;8.00;;;2.50;;
47603;SDS011;33326;51.116;6.900;2022-11-15T14:33:38;4.95;;;2.15;;
47603;SDS011;33326;51.116;6.900;2022-11-15T14:38:40;4.93;;;2.15;;
47603;SDS011;33326;51.116;6.900;2022-11-15T14:43:44;2.88;;;2.20;;
47603;SDS011;33326;51.116;6.900;2022-11-15T14:48:46;6.32;;;2.20;;
47603;SDS011;33326;51.116;6.900;2022-11-15T14:53:48;3.03;;;2.00;;
47603;SDS011;33326;51.116;6.900;2022-11-15T14:58:51;4.25;;;2.38;;
47603;SDS011;33326;51.116;6.900;2022-11-15T15:03:55;4.28;;;2.15;;
47603;SDS011;33326;51.116;6.900;2022-11-15T15:08:58;6.68;;;2.28;;
47603;SDS011;33326;51.116;6.900;2022-11-15T15:14:01;4.88;;;2.10;;
47603;SDS011;33326;51.116;6.900;2022-11-15T15:19:03;4.03;;;2.20;;
47603;SDS011;33326;51.116;6.900;2022-11-15T15:24:05;6.45;;;2.55;;
47603;SDS011;33326;51.116;6.900;2022-11-15T15:29:08;6.53;;;2.25;;
47603;SDS011;33326;51.116;6.900;2022-11-15T15:34:10;4.97;;;2.10;;
47603;SDS011;33326;51.116;6.900;2022-11-15T15:39:11;3.47;;;1.98;;
47603;SDS011;33326;51.116;6.900;2022-11-15T15:44:15;3.13;;;1.90;;
47603;SDS011;33326;51.116;6.900;2022-11-15T15:49:16;5.72;;;2.00;;
47603;SDS011;33326;51.116;6.900;2022-11-15T15:54:18;3.78;;;1.90;;
47603;SDS011;33326;51.116;6.900;2022-11-15T15:59:21;4.30;;;1.70;;
47603;SDS011;33326;51.116;6.900;2022-11-15T16:04:23;6.72;;;2.20;;
47603;SDS011;33326;51.116;6.900;2022-11-15T16:09:26;4.35;;;1.92;;
47603;SDS011;33326;51.116;6.900;2022-11-15T16:14:46;5.28;;;1.95;;
47603;SDS011;33326;51.116;6.900;2022-11-15T16:19:48;8.68;;;2.33;;
47603;SDS011;33326;51.116;6.900;2022-11-15T16:24:50;4.60;;;2.40;;
47603;SDS011;33326;51.116;6.900;2022-11-15T16:29:53;5.28;;;2.80;;
47603;SDS011;33326;51.116;6.900;2022-11-15T16:34:54;6.53;;;2.30;;
47603;SDS011;33326;51.116;6.900;2022-11-15T16:39:56;4.07;;;2.50;;
47603;SDS011;33326;51.116;6.900;2022-11-15T16:45:00;4.43;;;2.25;;
47603;SDS011;33326;51.116;6.900;2022-11-15T16:50:02;4.65;;;1.90;;
47603;SDS011;33326;51.116;6.900;2022-11-15T16:55:05;4.35;;;1.73;;
47603;SDS011;33326;51.116;6.900;2022-11-15T17:00:10;4.28;;;1.98;;
47603;SDS011;33326;51.116;6.900;2022-11-15T17:05:13;2.88;;;1.77;;
47603;SDS011;33326;51.116;6.900;2022-11-15T17:10:15;5.90;;;1.83;;
47603;SDS011;33326;51.116;6.900;2022-11-15T17:15:19;3.88;;;1.98;;
47603;SDS011;33326;51.116;6.900;2022-11-15T17:20:22;3.53;;;2.08;;
47603;SDS011;33326;51.116;6.900;2022-11-15T17:25:25;4.97;;;2.10;;
47603;SDS011;33326;51.116;6.900;2022-11-15T17:30:28;4.97;;;1.95;;
47603;SDS011;33326;51.116;6.900;2022-11-15T17:35:30;2.90;;;1.92;;
47603;SDS011;33326;51.116;6.900;2022-11-15T17:40:31;3.67;;;1.73;;
47603;SDS011;33326;51.116;6.900;2022-11-15T17:45:34;4.25;;;1.95;;
47603;SDS011;33326;51.116;6.900;2022-11-15T17:50:40;3.58;;;1.90;;
47603;SDS011;33326;51.116;6.900;2022-11-15T17:55:42;3.70;;;1.98;;
47603;SDS011;33326;51.116;6.900;2022-11-15T18:00:45;4.80;;;2.08;;
47603;SDS011;33326;51.116;6.900;2022-11-15T18:05:47;2.85;;;1.95;;
47603;SDS011;33326;51.116;6.900;2022-11-15T18:10:49;3.75;;;2.28;;
47603;SDS011;33326;51.116;6.900;2022-11-15T18:16:02;4.07;;;2.20;;
47603;SDS011;33326;51.116;6.900;2022-11-15T18:21:06;4.00;;;2.50;;
47603;SDS011;33326;51.116;6.900;2022-11-15T18:26:11;3.03;;;2.58;;
47603;SDS011;33326;51.116;6.900;2022-11-15T18:31:16;4.60;;;2.70;;
47603;SDS011;33326;51.116;6.900;2022-11-15T18:36:20;6.80;;;2.70;;
47603;SDS011;33326;51.116;6.900;2022-11-15T18:41:23;4.78;;;2.97;;
47603;SDS011;33326;51.116;6.900;2022-11-15T18:46:30;5.03;;;3.40;;
47603;SDS011;33326;51.116;6.900;2022-11-15T18:51:33;4.88;;;3.17;;
47603;SDS011;33326;51.116;6.900;2022-11-15T18:56:36;6.88;;;4.10;;
47603;SDS011;33326;51.116;6.900;2022-11-15T19:01:40;8.98;;;4.60;;
47603;SDS011;33326;51.116;6.900;2022-11-15T19:06:46;6.90;;;4.43;;
47603;SDS011;33326;51.116;6.900;2022-11-15T19:11:49;11.85;;;4.40;;
47603;SDS011;33326;51.116;6.900;2022-11-15T19:16:52;7.43;;;4.68;;
47603;SDS011;33326;51.116;6.900;2022-11-15T19:21:54;8.45;;;5.13;;
47603;SDS011;33326;51.116;6.900;2022-11-15T19:26:57;7.85;;;5.18;;
47603;SDS011;33326;51.116;6.900;2022-11-15T19:32:00;9.32;;;5.50;;
47603;SDS011;33326;51.116;6.900;2022-11-15T19:37:03;7.10;;;4.95;;
47603;SDS011;33326;51.116;6.900;2022-11-15T19:42:04;8.25;;;5.35;;
47603;SDS011;33326;51.116;6.900;2022-11-15T19:47:07;7.78;;;5.60;;
47603;SDS011;33326;51.116;6.900;2022-11-15T19:52:09;8.00;;;5.68;;
47603;SDS011;33326;51.116;6.900;2022-11-15T19:57:11;8.60;;;6.30;;
47603;SDS011;33326;51.116;6.900;2022-11-15T20:02:14;8.52;;;5.60;;
47603;SDS011;33326;51.116;6.900;2022-11-15T20:07:16;7.25;;;6.00;;
47603;SDS011;33326;51.116;6.900;2022-11-15T20:12:18;7.57;;;5.90;;
47603;SDS011;33326;51.116;6.900;2022-11-15T20:17:21;9.10;;;6.00;;
47603;SDS011;33326;51.116;6.900;2022-11-15T20:22:23;7.75;;;5.72;;
47603;SDS011;33326;51.116;6.900;2022-11-15T20:27:25;8.05;;;6.45;;
47603;SDS011;33326;51.116;6.900;2022-11-15T20:32:28;11.10;;;6.32;;
47603;SDS011;33326;51.116;6.900;2022-11-15T20:37:31;11.02;;;6.25;;
47603;SDS011;33326;51.116;6.900;2022-11-15T20:42:32;12.30;;;6.47;;
47603;SDS011;33326;51.116;6.900;2022-11-15T20:47:36;8.43;;;6.38;;
47603;SDS011;33326;51.116;6.900;2022-11-15T20:52:37;9.93;;;6.65;;
47603;SDS011;33326;51.116;6.900;2022-11-15T20:57:39;11.18;;;7.35;;
47603;SDS011;33326;51.116;6.900;2022-11-15T21:02:42;7.65;;;6.10;;
47603;SDS011;33326;51.116;6.900;2022-11-15T21:07:44;9.52;;;6.55;;
47603;SDS011;33326;51.116;6.900;2022-11-15T21:12:46;7.68;;;6.65;;
47603;SDS011;33326;51.116;6.900;2022-11-15T21:17:49;10.10;;;6.60;;
47603;SDS011;33326;51.116;6.900;2022-11-15T21:22:50;11.18;;;6.97;;
47603;SDS011;33326;51.116;6.900;2022-11-15T21:27:52;9.85;;;6.93;;
47603;SDS011;33326;51.116;6.900;2022-11-15T21:32:55;9.10;;;7.22;;
47603;SDS011;33326;51.116;6.900;2022-11-15T21:37:57;8.55;;;6.80;;
47603;SDS011;33326;51.116;6.900;2022-11-15T21:42:59;9.38;;;6.72;;
47603;SDS011;33326;51.116;6.900;2022-11-15T21:48:02;9.68;;;6.55;;
47603;SDS011;33326;51.116;6.900;2022-11-15T21:53:04;7.97;;;6.05;;
47603;SDS011;33326;51.116;6.900;2022-11-15T21:58:06;7.93;;;6.25;;
47603;SDS011;33326;51.116;6.900;2022-11-15T22:03:09;10.50;;;6.40;;
47603;SDS011;33326;51.116;6.900;2022-11-15T22:08:12;7.68;;;6.13;;
47603;SDS011;33326;51.116;6.900;2022-11-15T22:13:14;7.53;;;5.78;;
47603;SDS011;33326;51.116;6.900;2022-11-15T22:18:17;8.85;;;6.38;;
47603;SDS011;33326;51.116;6.900;2022-11-15T22:23:19;9.70;;;6.35;;
47603;SDS011;33326;51.116;6.900;2022-11-15T22:28:21;8.55;;;5.63;;
47603;SDS011;33326;51.116;6.900;2022-11-15T22:33:25;8.63;;;5.88;;
47603;SDS011;33326;51.116;6.900;2022-11-15T22:38:28;9.35;;;5.68;;
47603;SDS011;33326;51.116;6.900;2022-11-15T22:43:31;9.80;;;5.82;;
47603;SDS011;33326;51.116;6.900;2022-11-15T22:48:34;9.60;;;6.13;;
47603;SDS011;33326;51.116;6.900;2022-11-15T22:53:38;8.80;;;5.30;;
47603;SDS011;33326;51.116;6.900;2022-11-15T22:58:40;9.02;;;6.20;;
47603;SDS011;33326;51.116;6.900;2022-11-15T23:03:43;10.55;;;6.05;;
47603;SDS011;33326;51.116;6.900;2022-11-15T23:08:45;9.05;;;6.15;;
47603;SDS011;33326;51.116;6.900;2022-11-15T23:13:48;7.63;;;6.00;;
47603;SDS011;33326;51.116;6.900;2022-11-15T23:18:52;9.02;;;6.35;;
47603;SDS011;33326;51.116;6.900;2022-11-15T23:23:56;8.10;;;6.47;;
47603;SDS011;33326;51.116;6.900;2022-11-15T23:28:58;8.88;;;6.18;;
47603;SDS011;33326;51.116;6.900;2022-11-15T23:34:01;10.50;;;6.70;;
47603;SDS011;33326;51.116;6.900;2022-11-15T23:39:03;11.20;;;7.07;;
47603;SDS011;33326;51.116;6.900;2022-11-15T23:44:05;11.23;;;6.82;;
47603;SDS011;33326;51.116;6.900;2022-11-15T23:49:08;7.55;;;5.88;;
47603;SDS011;33326;51.116;6.900;2022-11-15T23:54:10;10.82;;;6.13;;
47603;SDS011;33326;51.116;6.900;2022-11-15T23:59:12;10.10;;;6.43;;
